Time;durP1;ratioP1;P1;durP2;ratioP2;P2;SDS_P1;SDS_P2;PMS_P1;PMS_P2;Temp;Humidity;BMP_temperature;BMP_pressure;BME280_temperature;BME280_humidity;BME280_pressure;Samples;Min_cycle;Max_cycle;Signal;HPM_P1;HPM_P2
2022/07/10 00:00:29;;;;;;;5.20;1.52;;;23.50;71.30;;;;;;4826476;29;20113;-81
2022/07/10 00:02:55;;;;;;;7.10;1.35;;;23.50;71.70;;;;;;4828374;29;20021;-81
2022/07/10 00:05:22;;;;;;;3.47;1.00;;;23.40;71.40;;;;;;4825143;29;20054;-81
2022/07/10 00:07:49;;;;;;;2.60;1.30;;;23.40;71.90;;;;;;4826087;29;20018;-81
2022/07/10 00:10:16;;;;;;;4.13;1.20;;;23.30;71.90;;;;;;4823917;29;20031;-81
2022/07/10 00:12:42;;;;;;;6.47;1.27;;;23.30;72.10;;;;;;4823364;29;20023;-81
2022/07/10 00:15:08;;;;;;;3.97;1.02;;;23.30;72.00;;;;;;4828467;29;20030;-81
2022/07/10 00:17:35;;;;;;;4.28;1.35;;;23.30;72.50;;;;;;4828124;29;20091;-81
2022/07/10 00:20:01;;;;;;;5.57;1.20;;;23.20;72.80;;;;;;4832339;29;20033;-81
2022/07/10 00:22:26;;;;;;;4.00;1.30;;;23.20;71.90;;;;;;4826810;29;20038;-81
2022/07/10 00:24:52;;;;;;;4.82;1.30;;;23.20;72.50;;;;;;4829088;29;20033;-81
2022/07/10 00:27:18;;;;;;;2.05;1.10;;;23.20;72.60;;;;;;4826019;29;20037;-81
2022/07/10 00:29:45;;;;;;;5.65;1.67;;;23.20;72.90;;;;;;4826034;29;20045;-81
2022/07/10 00:32:10;;;;;;;2.92;1.17;;;23.10;73.30;;;;;;4824771;29;20033;-81
2022/07/10 00:34:37;;;;;;;2.25;1.25;;;23.10;73.90;;;;;;4823483;29;20034;-81
2022/07/10 00:37:03;;;;;;;2.80;1.50;;;23.10;74.50;;;;;;4823812;29;20037;-81
2022/07/10 00:39:29;;;;;;;3.95;1.65;;;23.00;74.60;;;;;;4825290;29;20463;-81
2022/07/10 00:41:55;;;;;;;5.05;1.45;;;23.00;75.10;;;;;;4824418;29;20113;-81
2022/07/10 00:44:20;;;;;;;3.33;1.40;;;22.90;75.10;;;;;;4825304;29;20541;-81
2022/07/10 00:46:46;;;;;;;3.75;1.77;;;22.90;75.70;;;;;;4823086;29;20022;-81
2022/07/10 00:49:12;;;;;;;2.67;1.38;;;22.90;76.00;;;;;;4821145;29;20442;-81
2022/07/10 00:51:38;;;;;;;6.03;1.75;;;22.90;76.40;;;;;;4827901;29;20029;-81
2022/07/10 00:54:07;;;;;;;6.82;1.63;;;22.80;76.60;;;;;;4828630;29;20182;-81
2022/07/10 00:56:33;;;;;;;2.72;1.50;;;22.70;77.00;;;;;;4829468;29;20030;-81
2022/07/10 00:58:59;;;;;;;5.35;1.73;;;22.70;77.80;;;;;;4825969;29;20031;-80
2022/07/10 01:01:24;;;;;;;2.35;1.30;;;22.70;78.70;;;;;;4828846;29;20047;-80
2022/07/10 01:03:51;;;;;;;5.68;1.60;;;22.60;78.90;;;;;;4824476;29;20403;-81
2022/07/10 01:06:17;;;;;;;7.32;1.45;;;22.60;79.20;;;;;;4826084;29;20044;-81
2022/07/10 01:08:43;;;;;;;3.65;1.30;;;22.60;79.30;;;;;;4823516;29;20034;-81
2022/07/10 01:11:09;;;;;;;3.45;1.65;;;22.50;80.30;;;;;;4823364;29;20031;-81
2022/07/10 01:13:36;;;;;;;6.82;1.55;;;22.40;81.00;;;;;;4821978;29;20613;-81
2022/07/10 01:16:02;;;;;;;6.78;1.77;;;22.40;81.10;;;;;;4827840;29;20031;-81
2022/07/10 01:18:28;;;;;;;4.80;1.45;;;22.40;82.00;;;;;;4830439;29;20728;-81
2022/07/10 01:20:55;;;;;;;4.30;1.63;;;22.40;82.20;;;;;;4826295;29;20047;-80
2022/07/10 01:23:21;;;;;;;8.00;2.20;;;22.40;82.60;;;;;;4829803;29;20535;-81
2022/07/10 01:25:48;;;;;;;2.45;1.40;;;22.30;83.30;;;;;;4825258;29;20034;-81
2022/07/10 01:28:14;;;;;;;4.25;1.73;;;22.30;84.00;;;;;;4827219;29;20733;-81
2022/07/10 01:30:41;;;;;;;5.70;1.88;;;22.20;84.30;;;;;;4823657;29;20030;-81
2022/07/10 01:33:06;;;;;;;1.92;1.38;;;22.20;85.00;;;;;;4823800;29;20026;-81
2022/07/10 01:35:32;;;;;;;3.55;1.73;;;22.20;85.20;;;;;;4822718;29;20026;-81
2022/07/10 01:37:58;;;;;;;5.25;2.03;;;22.20;85.80;;;;;;4824517;29;20630;-81
2022/07/10 01:40:23;;;;;;;3.08;2.20;;;22.20;86.40;;;;;;4822062;29;20027;-81
2022/07/10 01:42:49;;;;;;;4.65;1.60;;;22.20;86.90;;;;;;4824548;29;20057;-81
2022/07/10 01:45:16;;;;;;;6.15;2.15;;;22.10;86.90;;;;;;4822713;29;20122;-81
2022/07/10 01:47:43;;;;;;;3.88;1.55;;;22.10;87.20;;;;;;4822536;29;20034;-81
2022/07/10 01:50:10;;;;;;;5.22;1.70;;;22.10;87.70;;;;;;4821000;29;20504;-81
2022/07/10 01:52:36;;;;;;;7.53;1.70;;;22.00;88.10;;;;;;4830159;29;20093;-81
2022/07/10 01:55:02;;;;;;;4.68;1.92;;;22.00;88.70;;;;;;4828386;29;20483;-81
2022/07/10 01:57:28;;;;;;;5.03;1.60;;;22.00;89.10;;;;;;4827054;29;20376;-81
2022/07/10 01:59:53;;;;;;;4.57;1.50;;;22.00;89.20;;;;;;4827460;29;20043;-81
2022/07/10 02:02:19;;;;;;;6.75;1.63;;;22.00;89.50;;;;;;4824275;29;20034;-81
2022/07/10 02:04:45;;;;;;;4.13;1.67;;;21.90;90.00;;;;;;4826121;29;20058;-81
2022/07/10 02:07:13;;;;;;;4.53;1.63;;;21.90;90.30;;;;;;4823229;29;20031;-81
2022/07/10 02:09:39;;;;;;;5.18;1.90;;;21.90;90.30;;;;;;4823726;29;20033;-81
2022/07/10 02:12:06;;;;;;;5.10;1.60;;;21.90;90.40;;;;;;4821872;29;20628;-80
2022/07/10 02:14:32;;;;;;;3.92;1.42;;;21.90;90.60;;;;;;4821371;29;20030;-81
2022/07/10 02:16:58;;;;;;;5.35;1.33;;;21.80;90.60;;;;;;4834605;29;20031;-81
2022/07/10 02:19:23;;;;;;;2.90;1.30;;;21.90;90.90;;;;;;4826154;29;20023;-81
2022/07/10 02:21:49;;;;;;;9.63;2.05;;;21.90;90.70;;;;;;4829976;29;20028;-81
2022/07/10 02:24:15;;;;;;;4.10;1.45;;;21.90;90.80;;;;;;4824853;29;20054;-81
2022/07/10 02:26:41;;;;;;;5.22;1.40;;;21.90;90.90;;;;;;4827527;29;20079;-81
2022/07/10 02:29:06;;;;;;;3.47;1.55;;;22.00;90.70;;;;;;4823612;29;20038;-81
2022/07/10 02:31:40;;;;;;;4.72;1.60;;;22.00;90.90;;;;;;4824985;29;20034;-81
2022/07/10 02:34:12;;;;;;;3.67;1.60;;;22.00;90.90;;;;;;4822194;29;20034;-81
2022/07/10 02:36:38;;;;;;;10.90;1.88;;;22.00;90.70;;;;;;4821746;29;20026;-81
2022/07/10 02:39:06;;;;;;;4.45;1.50;;;22.00;90.80;;;;;;4826445;29;20433;-81
2022/07/10 02:41:31;;;;;;;3.33;1.50;;;22.00;90.90;;;;;;4830558;29;20031;-81
2022/07/10 02:43:57;;;;;;;7.38;1.73;;;22.00;91.00;;;;;;4823824;29;20035;-81
2022/07/10 02:46:23;;;;;;;2.95;1.27;;;22.00;91.00;;;;;;4821895;29;20030;-81
2022/07/10 02:48:49;;;;;;;5.03;1.30;;;21.90;91.00;;;;;;4820740;29;20038;-81
2022/07/10 02:51:14;;;;;;;3.53;1.60;;;21.90;91.10;;;;;;4826478;29;20030;-81
2022/07/10 02:53:40;;;;;;;4.47;1.52;;;21.90;91.20;;;;;;4826588;29;20039;-81
2022/07/10 02:56:06;;;;;;;2.85;1.48;;;21.80;91.30;;;;;;4829500;29;20026;-81
2022/07/10 02:58:32;;;;;;;4.43;1.30;;;21.80;91.30;;;;;;4825798;29;20026;-81
2022/07/10 03:00:58;;;;;;;3.55;1.23;;;21.80;91.40;;;;;;4828152;29;20637;-81
2022/07/10 03:03:24;;;;;;;2.50;1.50;;;21.80;91.30;;;;;;4827875;29;20077;-81
2022/07/10 03:05:49;;;;;;;7.57;1.40;;;21.80;91.60;;;;;;4826420;29;20050;-81
2022/07/10 03:08:15;;;;;;;5.10;1.60;;;21.80;91.40;;;;;;4827384;29;20034;-81
2022/07/10 03:10:41;;;;;;;2.38;1.38;;;21.70;91.70;;;;;;4825007;29;20061;-81
2022/07/10 03:13:07;;;;;;;3.35;1.40;;;21.70;91.90;;;;;;4824881;29;20030;-81
2022/07/10 03:15:33;;;;;;;5.18;1.35;;;21.70;91.70;;;;;;4823686;29;20037;-81
2022/07/10 03:17:59;;;;;;;4.00;1.67;;;21.70;91.90;;;;;;4831439;29;20037;-81
2022/07/10 03:20:25;;;;;;;5.03;1.52;;;21.70;92.10;;;;;;4831913;29;20034;-81
2022/07/10 03:22:51;;;;;;;5.70;1.60;;;21.70;92.20;;;;;;4828338;29;20030;-79
2022/07/10 03:25:16;;;;;;;7.25;1.55;;;21.60;92.10;;;;;;4830824;29;20052;-81
2022/07/10 03:27:42;;;;;;;5.95;1.70;;;21.60;92.40;;;;;;4826529;29;20097;-81
2022/07/10 03:30:09;;;;;;;3.85;1.30;;;21.40;92.60;;;;;;4828604;29;20113;-81
2022/07/10 03:32:34;;;;;;;7.00;2.03;;;21.50;92.70;;;;;;4825207;29;20026;-80
2022/07/10 03:35:00;;;;;;;3.92;1.42;;;21.50;92.70;;;;;;4825856;29;20506;-81
2022/07/10 03:37:27;;;;;;;5.72;2.13;;;21.40;92.90;;;;;;4826491;29;20608;-81
2022/07/10 03:39:52;;;;;;;5.85;1.85;;;21.50;93.00;;;;;;4826128;29;20069;-80
2022/07/10 03:42:18;;;;;;;7.32;1.77;;;21.40;93.10;;;;;;4827676;29;20547;-81
2022/07/10 03:44:44;;;;;;;6.25;2.30;;;21.40;93.20;;;;;;4824783;29;20038;-81
2022/07/10 03:47:10;;;;;;;4.18;2.05;;;21.40;93.40;;;;;;4824713;29;20026;-81
2022/07/10 03:49:36;;;;;;;10.35;2.88;;;21.30;93.40;;;;;;4823516;29;20069;-80
2022/07/10 03:52:02;;;;;;;6.88;2.20;;;21.20;93.70;;;;;;4822893;29;20057;-81
2022/07/10 03:54:29;;;;;;;4.63;1.85;;;21.20;93.90;;;;;;4832914;29;20018;-81
2022/07/10 03:59:40;;;;;;;5.35;2.05;;;21.20;94.10;;;;;;4831211;29;20077;-81
2022/07/10 04:02:06;;;;;;;5.82;1.90;;;21.10;94.10;;;;;;4826494;29;20031;-80
2022/07/10 04:04:32;;;;;;;6.82;2.08;;;21.00;94.50;;;;;;4828317;29;20057;-81
2022/07/10 04:06:58;;;;;;;5.45;2.22;;;21.00;94.70;;;;;;4825120;29;20026;-82
2022/07/10 04:09:24;;;;;;;5.22;2.22;;;21.00;94.80;;;;;;4826030;29;20035;-81
2022/07/10 04:11:49;;;;;;;5.80;1.90;;;21.00;95.00;;;;;;4817014;29;20109;-80
2022/07/10 04:14:15;;;;;;;5.50;2.00;;;20.90;95.30;;;;;;4823118;29;20065;-81
2022/07/10 04:16:40;;;;;;;8.68;2.20;;;21.00;95.30;;;;;;4827870;29;20521;-81
2022/07/10 04:19:06;;;;;;;8.07;1.65;;;21.10;95.20;;;;;;4828678;29;20403;-81
2022/07/10 04:21:32;;;;;;;7.88;2.08;;;21.10;95.20;;;;;;4830619;29;20050;-80
2022/07/10 04:23:58;;;;;;;4.78;2.05;;;21.00;95.20;;;;;;4828090;29;20035;-81
2022/07/10 04:26:23;;;;;;;4.05;1.77;;;21.00;95.50;;;;;;4827773;29;20163;-80
2022/07/10 04:28:49;;;;;;;5.63;1.90;;;21.00;95.50;;;;;;4827346;29;20023;-81
2022/07/10 04:31:15;;;;;;;4.50;1.70;;;21.00;95.60;;;;;;4825150;29;20035;-81
2022/07/10 04:33:40;;;;;;;5.38;1.70;;;21.00;95.70;;;;;;4825843;29;20026;-81
2022/07/10 04:36:06;;;;;;;2.45;1.45;;;21.00;95.70;;;;;;4823399;29;20035;-81
2022/07/10 04:38:32;;;;;;;3.58;1.60;;;21.10;95.70;;;;;;4825731;29;20030;-82
2022/07/10 04:40:58;;;;;;;4.70;1.60;;;21.00;95.80;;;;;;4827963;29;20079;-79
2022/07/10 04:43:24;;;;;;;3.03;1.60;;;21.00;95.90;;;;;;4824438;29;20042;-80
2022/07/10 04:45:49;;;;;;;7.53;1.40;;;21.00;96.20;;;;;;4836138;29;20034;-79
2022/07/10 04:48:15;;;;;;;2.38;1.33;;;21.00;96.20;;;;;;4823239;29;20026;-79
2022/07/10 04:50:41;;;;;;;4.63;1.70;;;20.90;96.20;;;;;;4822727;29;20041;-80
2022/07/10 04:53:06;;;;;;;3.35;1.70;;;21.00;96.10;;;;;;4828724;29;20022;-80
2022/07/10 04:55:32;;;;;;;4.90;1.50;;;21.00;96.40;;;;;;4827357;29;20027;-79
2022/07/10 04:57:58;;;;;;;5.43;1.70;;;20.90;96.60;;;;;;4821875;29;20022;-79
2022/07/10 05:00:24;;;;;;;7.78;1.60;;;20.90;96.40;;;;;;4825759;29;20143;-79
2022/07/10 05:02:49;;;;;;;5.70;1.60;;;20.90;96.60;;;;;;4822530;29;20106;-80
2022/07/10 05:05:15;;;;;;;5.45;1.50;;;21.00;96.70;;;;;;4822952;29;20058;-80
2022/07/10 05:07:41;;;;;;;4.78;1.73;;;20.90;96.70;;;;;;4828774;29;20342;-80
2022/07/10 05:10:07;;;;;;;6.78;1.65;;;21.00;96.60;;;;;;4832583;29;20033;-79
2022/07/10 05:12:33;;;;;;;4.57;1.77;;;21.00;96.50;;;;;;4831348;29;20021;-79
2022/07/10 05:14:59;;;;;;;4.43;1.40;;;20.90;96.80;;;;;;4832461;29;20023;-79
2022/07/10 05:17:26;;;;;;;3.95;1.65;;;21.00;96.90;;;;;;4832427;29;20370;-79
2022/07/10 05:19:53;;;;;;;6.82;1.83;;;21.00;96.90;;;;;;4832408;29;20026;-79
2022/07/10 05:22:19;;;;;;;5.15;1.60;;;21.00;96.80;;;;;;4832448;29;20022;-79
2022/07/10 05:24:44;;;;;;;3.55;1.30;;;21.00;96.70;;;;;;4831494;29;20034;-79
2022/07/10 05:27:10;;;;;;;4.50;1.65;;;21.10;96.80;;;;;;4826864;29;20034;-79
2022/07/10 05:29:36;;;;;;;3.97;1.35;;;21.10;96.70;;;;;;4821125;29;20105;-79
2022/07/10 05:32:02;;;;;;;1.90;1.50;;;21.10;97.00;;;;;;4820834;29;20030;-79
2022/07/10 05:34:28;;;;;;;6.35;1.70;;;21.10;96.70;;;;;;4820845;29;20087;-79
2022/07/10 05:36:53;;;;;;;5.22;1.55;;;21.10;96.80;;;;;;4820955;29;20030;-79
2022/07/10 05:39:19;;;;;;;6.65;1.80;;;21.10;97.00;;;;;;4820996;29;20035;-79
2022/07/10 05:41:45;;;;;;;3.42;1.75;;;21.20;96.80;;;;;;4821233;29;20024;-79
2022/07/10 05:44:10;;;;;;;3.55;1.40;;;21.30;96.80;;;;;;4820860;29;20464;-79
2022/07/10 05:46:36;;;;;;;6.15;2.00;;;21.30;96.60;;;;;;4820790;29;20045;-80
2022/07/10 05:49:02;;;;;;;7.53;1.75;;;21.30;96.50;;;;;;4820749;29;20034;-79
2022/07/10 05:51:27;;;;;;;4.05;1.40;;;21.40;96.50;;;;;;4821903;29;20479;-79
2022/07/10 05:53:53;;;;;;;4.32;1.90;;;21.50;96.30;;;;;;4821867;29;20061;-79
2022/07/10 05:56:19;;;;;;;6.63;1.40;;;21.40;96.50;;;;;;4823070;29;20050;-79
2022/07/10 05:58:44;;;;;;;5.85;1.40;;;21.40;96.30;;;;;;4839338;29;20025;-80
2022/07/10 06:01:10;;;;;;;6.72;2.00;;;21.50;96.10;;;;;;4830739;29;20325;-80
2022/07/10 06:03:35;;;;;;;7.15;1.85;;;21.40;96.50;;;;;;4839182;29;20441;-79
2022/07/10 06:06:01;;;;;;;3.42;1.60;;;21.50;96.20;;;;;;4834168;29;20053;-80
2022/07/10 06:08:27;;;;;;;8.57;1.63;;;21.60;95.90;;;;;;4846657;29;20385;-80
2022/07/10 06:10:52;;;;;;;3.40;1.48;;;21.70;96.00;;;;;;4835893;29;20037;-79
2022/07/10 06:13:19;;;;;;;2.58;1.30;;;21.60;95.70;;;;;;4845209;29;20114;-79
2022/07/10 06:15:44;;;;;;;4.05;1.20;;;21.70;95.50;;;;;;4832731;29;20040;-79
2022/07/10 06:18:10;;;;;;;6.65;1.50;;;21.80;95.70;;;;;;4832591;29;20030;-79
2022/07/10 06:20:36;;;;;;;3.53;1.58;;;21.90;95.30;;;;;;4831317;29;20089;-79
2022/07/10 06:23:01;;;;;;;5.13;1.23;;;21.90;95.20;;;;;;4837673;29;20022;-79
2022/07/10 06:25:27;;;;;;;5.38;1.27;;;22.00;95.30;;;;;;4838534;29;20034;-79
2022/07/10 06:27:53;;;;;;;3.10;1.20;;;22.00;95.20;;;;;;4839303;29;20040;-82
2022/07/10 06:30:18;;;;;;;4.63;1.58;;;22.00;95.10;;;;;;4835359;29;20034;-79
2022/07/10 06:32:44;;;;;;;3.85;1.25;;;22.10;94.80;;;;;;4834565;29;20025;-80
2022/07/10 06:35:10;;;;;;;8.73;1.50;;;22.10;94.70;;;;;;4833651;29;20085;-79
2022/07/10 06:37:36;;;;;;;5.78;1.42;;;22.20;94.70;;;;;;4837798;29;20034;-79
2022/07/10 06:40:02;;;;;;;3.65;1.20;;;22.30;94.50;;;;;;4837367;29;20075;-79
2022/07/10 06:42:28;;;;;;;3.05;1.27;;;22.40;94.40;;;;;;4839597;29;20030;-79
2022/07/10 06:44:53;;;;;;;14.70;1.50;;;22.40;94.00;;;;;;4835884;29;20065;-79
2022/07/10 06:50:05;;;;;;;2.92;1.20;;;22.50;94.00;;;;;;4834598;29;20357;-79
2022/07/10 06:52:34;;;;;;;5.05;1.45;;;22.60;93.80;;;;;;4834343;29;20097;-79
2022/07/10 06:55:01;;;;;;;4.00;1.50;;;22.60;93.70;;;;;;4827616;29;20120;-79
2022/07/10 06:57:27;;;;;;;3.42;1.30;;;22.70;93.70;;;;;;4825660;29;20356;-79
2022/07/10 06:59:53;;;;;;;5.63;1.42;;;22.70;93.70;;;;;;4824755;29;20030;-79
2022/07/10 07:02:19;;;;;;;4.00;1.20;;;22.80;93.60;;;;;;4829876;29;20026;-80
2022/07/10 07:04:45;;;;;;;6.63;1.10;;;22.80;93.30;;;;;;4829844;29;20058;-79
2022/07/10 07:07:14;;;;;;;2.70;1.00;;;22.90;93.10;;;;;;4827167;29;20095;-80
2022/07/10 07:09:43;;;;;;;2.58;1.52;;;23.00;93.00;;;;;;4822902;29;20062;-79
2022/07/10 07:12:09;;;;;;;5.97;1.38;;;23.00;92.90;;;;;;4820584;29;20114;-79
2022/07/10 07:14:35;;;;;;;1.77;1.00;;;23.00;93.20;;;;;;4826230;29;20135;-79
2022/07/10 07:17:05;;;;;;;2.97;1.20;;;23.10;93.00;;;;;;4828151;29;20030;-78
2022/07/10 07:23:09;;;;;;;3.85;1.00;;;23.20;93.00;;;;;;4825733;29;20030;-79
2022/07/10 07:25:03;;;;;;;2.63;1.27;;;23.40;92.70;;;;;;4824573;29;20395;-79
2022/07/10 07:27:29;;;;;;;4.15;1.20;;;23.50;92.50;;;;;;4823129;29;20022;-79
2022/07/10 07:29:55;;;;;;;2.30;0.93;;;23.60;92.20;;;;;;4829298;29;20497;-79
2022/07/10 07:32:20;;;;;;;4.95;1.30;;;23.70;92.00;;;;;;4832983;29;20030;-79
2022/07/10 07:34:46;;;;;;;3.15;1.00;;;23.80;91.70;;;;;;4828603;29;20038;-79
2022/07/10 07:37:12;;;;;;;4.78;1.02;;;23.90;91.50;;;;;;4825532;29;20328;-79
2022/07/10 07:39:37;;;;;;;4.80;1.10;;;23.90;91.60;;;;;;4828074;29;20030;-79
2022/07/10 07:42:04;;;;;;;3.55;1.30;;;24.00;91.50;;;;;;4826554;29;20038;-79
2022/07/10 07:44:29;;;;;;;4.10;1.20;;;24.10;91.30;;;;;;4826949;29;20070;-78
2022/07/10 07:46:56;;;;;;;1.45;1.08;;;24.10;91.00;;;;;;4823865;29;20030;-78
2022/07/10 07:49:21;;;;;;;2.83;1.17;;;24.20;90.80;;;;;;4824372;29;20449;-78
2022/07/10 07:51:48;;;;;;;2.72;1.10;;;24.20;90.70;;;;;;4825210;29;20030;-79
2022/07/10 07:54:15;;;;;;;2.13;1.20;;;24.30;90.60;;;;;;4824984;29;20046;-79
2022/07/10 07:56:41;;;;;;;4.75;0.98;;;24.40;90.50;;;;;;4825252;29;20491;-79
2022/07/10 07:59:06;;;;;;;3.35;1.00;;;24.40;90.30;;;;;;4823489;29;20091;-79
2022/07/10 08:01:32;;;;;;;4.22;1.02;;;24.50;90.20;;;;;;4824803;29;20026;-79
2022/07/10 08:03:58;;;;;;;6.03;1.30;;;24.50;90.00;;;;;;4830852;29;20094;-79
2022/07/10 08:06:24;;;;;;;2.15;1.13;;;24.60;90.00;;;;;;4828129;29;20103;-79
2022/07/10 08:08:50;;;;;;;3.42;1.23;;;24.80;89.80;;;;;;4831587;29;20441;-79
2022/07/10 08:11:16;;;;;;;5.47;1.48;;;24.90;89.30;;;;;;4826559;29;20069;-79
2022/07/10 08:13:43;;;;;;;4.53;1.15;;;25.00;89.10;;;;;;4829291;29;20029;-79
2022/07/10 08:16:08;;;;;;;4.75;1.15;;;25.00;89.40;;;;;;4825305;29;20059;-79
2022/07/10 08:18:34;;;;;;;4.32;1.33;;;25.10;88.40;;;;;;4826156;29;20038;-79
2022/07/10 08:21:00;;;;;;;3.47;1.30;;;25.10;87.10;;;;;;4823825;29;20052;-79
2022/07/10 08:23:26;;;;;;;2.83;0.75;;;25.20;87.60;;;;;;4823545;29;20554;-79
2022/07/10 08:25:51;;;;;;;2.33;0.90;;;25.30;88.30;;;;;;4822686;29;20504;-79
2022/07/10 08:28:17;;;;;;;2.35;1.05;;;25.30;86.40;;;;;;4828413;29;20416;-79
2022/07/10 08:30:43;;;;;;;2.53;0.90;;;25.40;86.30;;;;;;4831657;29;20522;-79
2022/07/10 08:33:09;;;;;;;1.50;0.93;;;25.50;86.10;;;;;;4827754;29;20026;-79
2022/07/10 08:35:34;;;;;;;4.35;0.70;;;25.50;86.10;;;;;;4826455;29;20444;-79
2022/07/10 08:38:01;;;;;;;2.10;0.80;;;25.60;84.00;;;;;;4826190;29;20159;-79
2022/07/10 08:40:34;;;;;;;2.25;0.80;;;25.70;84.50;;;;;;4826997;29;20042;-79
2022/07/10 08:43:00;;;;;;;1.60;0.88;;;25.80;84.40;;;;;;4825550;29;20113;-79
2022/07/10 08:45:30;;;;;;;2.47;1.00;;;25.90;83.20;;;;;;4824402;29;20185;-79
2022/07/10 08:48:00;;;;;;;3.63;0.90;;;25.90;82.60;;;;;;4824331;29;20022;-79
2022/07/10 08:50:28;;;;;;;4.47;1.20;;;26.00;82.80;;;;;;4823315;29;20062;-79
2022/07/10 08:53:16;;;;;;;1.98;0.90;;;26.00;82.40;;;;;;4822175;29;20106;-79
2022/07/10 08:55:42;;;;;;;4.13;1.00;;;26.10;82.30;;;;;;4828670;29;20163;-80
2022/07/10 08:58:12;;;;;;;2.35;0.90;;;26.20;82.30;;;;;;4831934;29;20489;-79
2022/07/10 09:00:38;;;;;;;3.25;0.90;;;26.30;82.10;;;;;;4826542;29;20482;-79
2022/07/10 09:03:03;;;;;;;3.13;0.90;;;26.40;82.30;;;;;;4829619;29;20071;-79
2022/07/10 09:05:30;;;;;;;2.03;0.80;;;26.50;81.40;;;;;;4824930;29;20106;-80
2022/07/10 09:07:56;;;;;;;2.35;0.95;;;26.60;81.70;;;;;;4827442;29;20574;-80
2022/07/10 09:10:24;;;;;;;3.35;0.82;;;26.70;81.10;;;;;;4823957;29;20038;-79
2022/07/10 09:13:01;;;;;;;2.97;1.05;;;26.80;81.30;;;;;;4824602;29;20307;-80
2022/07/10 09:15:34;;;;;;;5.75;1.15;;;26.80;81.00;;;;;;4822717;29;20071;-80
2022/07/10 09:18:01;;;;;;;3.03;0.95;;;26.80;80.10;;;;;;4821952;29;20034;-79
2022/07/10 09:20:35;;;;;;;4.07;1.00;;;26.90;80.10;;;;;;4836107;29;20030;-80
2022/07/10 09:23:20;;;;;;;;;;;26.90;79.40;;;;;;4828786;29;20121;-80
2022/07/10 09:25:53;;;;;;;2.63;0.93;;;27.00;78.60;;;;;;4826976;29;19924;-80
2022/07/10 09:28:23;;;;;;;2.78;1.10;;;27.00;78.20;;;;;;4828671;29;20053;-80
2022/07/10 09:30:49;;;;;;;4.22;1.13;;;27.20;78.60;;;;;;4824739;29;20062;-79
2022/07/10 09:33:25;;;;;;;3.75;1.20;;;27.30;77.70;;;;;;4828476;29;20034;-79
2022/07/10 09:36:12;;;;;;;6.85;1.02;;;27.40;77.30;;;;;;4818021;29;20027;-79
2022/07/10 09:38:43;;;;;;;3.08;0.90;;;27.40;77.20;;;;;;4825990;29;20034;-81
2022/07/10 09:41:16;;;;;;;4.38;0.98;;;27.50;76.80;;;;;;4827148;29;20601;-81
2022/07/10 09:43:59;;;;;;;5.47;1.00;;;27.50;76.90;;;;;;4823949;29;20068;-81
2022/07/10 09:46:30;;;;;;;2.38;0.93;;;27.60;77.60;;;;;;4823157;29;20038;-81
2022/07/10 09:49:03;;;;;;;4.97;1.10;;;27.70;77.00;;;;;;4823879;29;20030;-81
2022/07/10 09:51:34;;;;;;;2.03;0.80;;;27.80;77.30;;;;;;4816748;29;20062;-81
2022/07/10 09:54:02;;;;;;;3.63;0.80;;;27.90;76.00;;;;;;4821607;29;20064;-81
2022/07/10 09:56:34;;;;;;;2.10;0.75;;;27.90;75.50;;;;;;4826845;29;20030;-81
2022/07/10 09:59:00;;;;;;;2.13;0.90;;;28.10;75.40;;;;;;4826600;29;20058;-81
2022/07/10 10:01:28;;;;;;;1.67;0.82;;;28.10;75.50;;;;;;4821110;29;20061;-81
2022/07/10 10:03:58;;;;;;;4.93;1.05;;;28.20;74.80;;;;;;4824753;29;20095;-82
2022/07/10 10:06:28;;;;;;;2.42;1.08;;;28.20;73.70;;;;;;4820805;29;20066;-81
2022/07/10 10:09:07;;;;;;;2.28;1.15;;;28.20;74.90;;;;;;4820854;29;20049;-81
2022/07/10 10:11:36;;;;;;;1.90;1.02;;;28.30;73.40;;;;;;4821799;29;20022;-81
2022/07/10 10:14:03;;;;;;;3.95;1.30;;;28.40;73.20;;;;;;4826269;29;20562;-81
2022/07/10 10:16:29;;;;;;;4.15;1.67;;;28.50;73.90;;;;;;4823365;29;20030;-81
2022/07/10 10:21:40;;;;;;;7.32;3.35;;;28.60;71.20;;;;;;4829347;29;20392;-81
2022/07/10 10:24:06;;;;;;;8.02;2.00;;;28.60;71.20;;;;;;4828769;29;20045;-81
2022/07/10 10:26:32;;;;;;;7.63;2.30;;;28.70;70.40;;;;;;4822355;29;20048;-81
2022/07/10 10:29:01;;;;;;;4.90;1.80;;;28.70;70.60;;;;;;4825015;29;20491;-83
2022/07/10 10:31:28;;;;;;;4.75;1.83;;;28.80;69.50;;;;;;4824819;29;20058;-83
2022/07/10 10:33:55;;;;;;;2.75;1.27;;;28.80;69.60;;;;;;4822851;29;20108;-83
2022/07/10 10:36:44;;;;;;;5.72;1.23;;;28.90;68.90;;;;;;4821808;29;20492;-83
2022/07/10 10:39:19;;;;;;;2.45;0.93;;;29.00;68.20;;;;;;4821076;29;20161;-83
2022/07/10 10:41:53;;;;;;;4.95;1.30;;;29.10;68.30;;;;;;4827003;29;20099;-83
2022/07/10 10:44:23;;;;;;;;;;;29.20;68.40;;;;;;4825948;29;20042;-83
2022/07/10 10:46:56;;;;;;;2.30;1.02;;;29.30;67.30;;;;;;4823764;29;19924;-83
2022/07/10 10:49:24;;;;;;;3.90;1.20;;;29.30;67.30;;;;;;4825983;29;20030;-83
2022/07/10 10:52:01;;;;;;;6.68;1.15;;;29.40;66.40;;;;;;4822763;29;20400;-83
2022/07/10 10:54:28;;;;;;;3.35;0.80;;;29.40;65.30;;;;;;4823422;29;20502;-83
2022/07/10 10:57:14;;;;;;;4.10;1.08;;;29.40;65.70;;;;;;4821315;29;20030;-83
2022/07/10 10:59:55;;;;;;;3.95;1.10;;;29.50;65.70;;;;;;4814890;29;20018;-83
2022/07/10 11:02:29;;;;;;;4.53;0.98;;;29.50;64.20;;;;;;4826657;29;20497;-83
2022/07/10 11:05:22;;;;;;;;;;;29.60;62.90;;;;;;4828998;29;20114;-83
2022/07/10 11:08:02;;;;;;;4.22;0.93;;;29.70;63.30;;;;;;4827799;29;20350;-83
2022/07/10 11:10:37;;;;;;;1.88;0.80;;;29.90;62.20;;;;;;4815321;29;20030;-81
2022/07/10 11:13:29;;;;;;;4.80;0.73;;;30.00;61.70;;;;;;4827240;29;20051;-82
2022/07/10 11:15:57;;;;;;;3.75;0.80;;;30.10;62.00;;;;;;4823490;29;20125;-82
2022/07/10 11:18:25;;;;;;;2.05;0.90;;;30.20;61.40;;;;;;4823281;29;20034;-82
2022/07/10 11:20:55;;;;;;;5.72;1.00;;;30.30;61.00;;;;;;4821673;29;20579;-82
2022/07/10 11:23:58;;;;;;;1.98;0.80;;;30.40;59.20;;;;;;4822825;29;20082;-82
2022/07/10 11:26:41;;;;;;;3.35;1.00;;;30.40;59.10;;;;;;4826229;29;20459;-82
2022/07/10 11:29:07;;;;;;;2.30;0.77;;;30.50;58.30;;;;;;4829801;29;20035;-82
2022/07/10 11:31:44;;;;;;;2.08;0.50;;;30.60;57.60;;;;;;4831337;29;20496;-82
2022/07/10 11:34:10;;;;;;;2.80;0.93;;;30.70;56.90;;;;;;4827639;29;20019;-82
2022/07/10 11:36:39;;;;;;;4.20;0.88;;;30.80;55.90;;;;;;4829910;29;20368;-82
2022/07/10 11:39:06;;;;;;;1.70;0.80;;;30.90;55.20;;;;;;4826385;29;20495;-82
2022/07/10 11:41:32;;;;;;;4.78;0.70;;;30.90;54.70;;;;;;4827175;29;20106;-82
2022/07/10 11:44:03;;;;;;;1.17;0.50;;;30.90;52.70;;;;;;4825128;29;20076;-82
2022/07/10 11:46:33;;;;;;;2.13;0.60;;;30.80;52.80;;;;;;4824617;29;20516;-82
2022/07/10 11:49:04;;;;;;;1.35;0.63;;;31.00;54.30;;;;;;4817501;29;20072;-82
2022/07/10 11:51:32;;;;;;;3.08;0.80;;;31.20;53.60;;;;;;4822871;29;20085;-82
2022/07/10 11:54:03;;;;;;;5.47;0.70;;;31.40;53.60;;;;;;4834042;29;20495;-82
2022/07/10 11:56:43;;;;;;;5.78;0.60;;;31.50;52.10;;;;;;4827932;29;20373;-82
2022/07/10 11:59:11;;;;;;;1.48;0.30;;;31.60;50.30;;;;;;4826898;29;20026;-83
2022/07/10 12:01:48;;;;;;;0.80;0.30;;;31.70;48.90;;;;;;4826280;29;20022;-82
2022/07/10 12:04:16;;;;;;;0.68;0.40;;;31.70;49.60;;;;;;4824954;29;20099;-82
2022/07/10 12:06:45;;;;;;;1.52;0.50;;;31.80;50.30;;;;;;4824937;29;20026;-82
2022/07/10 12:09:16;;;;;;;2.50;0.35;;;32.00;51.30;;;;;;4826038;29;20045;-82
2022/07/10 12:11:43;;;;;;;0.98;0.50;;;32.10;51.00;;;;;;4826243;29;20105;-82
2022/07/10 12:14:19;;;;;;;1.30;0.47;;;32.20;47.90;;;;;;4825935;29;20052;-82
2022/07/10 12:16:48;;;;;;;4.80;3.80;;;32.30;47.80;;;;;;4826122;29;20060;-82
2022/07/10 12:19:18;;;;;;;3.20;1.15;;;32.40;49.30;;;;;;4825042;29;20037;-82
2022/07/10 12:21:46;;;;;;;4.00;0.80;;;32.60;48.10;;;;;;4824476;29;20399;-79
2022/07/10 12:24:16;;;;;;;6.30;0.70;;;32.60;48.60;;;;;;4822930;29;20026;-79
2022/07/10 12:26:43;;;;;;;1.02;0.45;;;32.70;48.60;;;;;;4822522;29;20507;-79
2022/07/10 12:29:29;;;;;;;3.55;0.52;;;32.60;48.10;;;;;;4828004;29;20018;-79
2022/07/10 12:31:57;;;;;;;1.75;0.47;;;32.80;49.20;;;;;;4827337;29;20523;-79
2022/07/10 12:34:37;;;;;;;0.88;0.43;;;33.00;48.30;;;;;;4826066;29;20062;-79
2022/07/10 12:37:13;;;;;;;3.75;0.68;;;33.10;48.20;;;;;;4826179;29;20452;-80
2022/07/10 12:39:53;;;;;;;0.80;0.32;;;33.10;48.30;;;;;;4825494;29;20407;-79
2022/07/10 12:42:29;;;;;;;3.00;0.50;;;33.10;47.90;;;;;;4825115;29;20030;-79
2022/07/10 12:45:09;;;;;;;1.17;0.30;;;33.30;48.30;;;;;;4825049;29;20068;-81
2022/07/10 12:47:48;;;;;;;3.15;0.75;;;33.40;48.20;;;;;;4818729;29;20026;-81
2022/07/10 12:50:16;;;;;;;2.65;1.00;;;33.60;48.80;;;;;;4823845;29;20034;-82
2022/07/10 12:52:41;;;;;;;10.13;0.80;;;33.70;48.30;;;;;;4822153;29;20029;-82
2022/07/10 12:55:13;;;;;;;1.77;0.47;;;33.90;48.70;;;;;;4828848;29;20290;-78
2022/07/10 12:57:49;;;;;;;1.27;0.70;;;34.10;48.00;;;;;;4829151;29;20022;-77
2022/07/10 13:00:20;;;;;;;5.40;0.70;;;34.30;47.10;;;;;;4827686;29;20033;-79
2022/07/10 13:02:50;;;;;;;3.45;0.57;;;34.30;48.00;;;;;;4826630;29;20054;-81